createdAt,value
2018-04-28T00:00:59.521Z,100039
2018-04-28T00:03:30.311Z,100038
2018-04-28T00:05:58.391Z,100041
2018-04-28T00:08:35.412Z,100043
2018-04-28T00:11:03.610Z,100034
2018-04-28T00:13:32.939Z,100038
2018-04-28T00:16:03.195Z,100032
2018-04-28T00:18:31.578Z,100024
2018-04-28T00:21:00.558Z,100023
2018-04-28T00:23:28.657Z,100020
2018-04-28T00:26:01.229Z,100030
2018-04-28T00:28:50.067Z,100020
2018-04-28T00:31:25.569Z,100021
2018-04-28T00:33:55.030Z,100022
2018-04-28T00:36:45.822Z,100019
2018-04-28T00:39:13.958Z,100034
2018-04-28T00:41:42.764Z,100029
2018-04-28T00:44:13.462Z,100021
2018-04-28T00:46:45.168Z,100020
2018-04-28T00:49:16.099Z,100028
2018-04-28T00:51:53.614Z,100019
2018-04-28T00:54:34.283Z,100018
2018-04-28T00:57:22.948Z,100019
2018-04-28T00:59:54.732Z,100027
2018-04-28T01:02:23.678Z,100025
2018-04-28T01:04:51.763Z,100018
2018-04-28T01:07:23.192Z,100028
2018-04-28T01:09:58.766Z,100027
2018-04-28T01:12:29.685Z,100023
2018-04-28T01:14:59.212Z,100024
2018-04-28T01:17:27.289Z,100026
2018-04-28T01:19:59.914Z,100035
2018-04-28T01:22:40.508Z,100021
2018-04-28T01:25:10.143Z,100027
2018-04-28T01:27:46.792Z,100024
2018-04-28T01:30:20.424Z,100026
2018-04-28T01:35:52.145Z,100027
2018-04-28T01:38:20.826Z,100025
2018-04-28T01:40:48.903Z,100024
2018-04-28T01:43:38.485Z,100021
2018-04-28T01:46:13.323Z,100019
2018-04-28T01:48:46.317Z,100024
2018-04-28T01:51:15.306Z,100021
2018-04-28T01:53:44.588Z,100028
2018-04-28T01:56:20.356Z,100033
2018-04-28T01:58:52.720Z,100034
2018-04-28T02:01:30.775Z,100027
2018-04-28T02:04:01.796Z,100024
2018-04-28T02:06:51.735Z,100032
2018-04-28T02:09:20.718Z,100036
2018-04-28T02:15:12.395Z,100033
2018-04-28T02:20:43.109Z,100035
2018-04-28T02:23:12.843Z,100036
2018-04-28T02:25:44.733Z,100038
2018-04-28T02:31:28.162Z,100044
2018-04-28T02:34:00.915Z,100057
2018-04-28T02:36:35.636Z,100045
2018-04-28T02:39:05.794Z,100039
2018-04-28T02:41:37.512Z,100037
2018-04-28T02:44:05.620Z,100037
2018-04-28T02:46:33.717Z,100038
2018-04-28T02:49:03.904Z,100043
2018-04-28T02:51:35.803Z,100044
2018-04-28T02:54:03.986Z,100042
2018-04-28T02:56:36.816Z,100044
2018-04-28T02:59:16.752Z,100043
2018-04-28T03:02:04.499Z,100035
2018-04-28T03:04:35.352Z,100041
2018-04-28T03:07:26.082Z,100035
2018-04-28T03:09:54.206Z,100036
2018-04-28T03:12:22.393Z,100043
2018-04-28T03:14:50.665Z,100046
2018-04-28T03:17:21.416Z,100040
2018-04-28T03:19:51.835Z,100056
2018-04-28T03:22:20.091Z,100041
2018-04-28T03:24:54.917Z,100046
2018-04-28T03:27:31.355Z,100050
2018-04-28T03:30:08.058Z,100058
2018-04-28T03:32:37.913Z,100052
2018-04-28T03:35:06.245Z,100055
2018-04-28T03:37:39.016Z,100056
2018-04-28T03:40:26.847Z,100061
2018-04-28T03:45:50.445Z,100053
2018-04-28T03:48:34.231Z,100061
2018-04-28T03:51:14.095Z,100058
2018-04-28T03:53:58.251Z,100062
2018-04-28T03:56:41.202Z,100063
2018-04-28T03:59:21.252Z,100070
2018-04-28T04:02:10.224Z,100078
2018-04-28T04:04:38.648Z,100080
2018-04-28T04:07:30.783Z,100076
2018-04-28T04:10:05.429Z,100086
2018-04-28T04:12:55.632Z,100085
2018-04-28T04:18:46.158Z,100092
2018-04-28T04:21:20.143Z,100095
2018-04-28T04:24:11.729Z,100095
2018-04-28T04:26:45.050Z,100085
2018-04-28T04:29:20.169Z,100096
2018-04-28T04:31:54.247Z,100091
2018-04-28T04:37:34.460Z,100096
2018-04-28T04:40:04.387Z,100093
2018-04-28T04:42:42.421Z,100108
2018-04-28T04:45:16.062Z,100110
2018-04-28T04:47:44.738Z,100106
2018-04-28T04:50:18.723Z,100111
2018-04-28T04:52:56.554Z,100110
2018-04-28T04:55:31.239Z,100114
2018-04-28T04:58:11.284Z,100107
2018-04-28T05:00:59.146Z,100110
2018-04-28T05:06:33.997Z,100107
2018-04-28T05:09:07.532Z,100115
2018-04-28T05:11:41.536Z,100115
2018-04-28T05:14:32.003Z,100116
2018-04-28T05:17:06.551Z,100120
2018-04-28T05:19:46.913Z,100123
2018-04-28T05:22:24.539Z,100127
2018-04-28T05:28:00.226Z,100139
2018-04-28T05:33:41.440Z,100147
2018-04-28T05:36:38.977Z,100158
2018-04-28T05:39:14.781Z,100153
2018-04-28T05:42:04.984Z,100156
2018-04-28T05:44:54.098Z,100161
2018-04-28T05:50:36.531Z,100167
2018-04-28T05:53:28.814Z,100174
2018-04-28T05:56:25.306Z,100174
2018-04-28T05:59:09.400Z,100181
2018-04-28T06:01:46.705Z,100187
2018-04-28T06:04:36.904Z,100192
2018-04-28T06:07:25.029Z,100190
2018-04-28T06:10:27.152Z,100196
2018-04-28T06:13:07.172Z,100208
2018-04-28T06:18:48.762Z,100213
2018-04-28T06:21:17.197Z,100214
2018-04-28T06:23:45.790Z,100209
2018-04-28T06:26:14.479Z,100221
2018-04-28T06:28:43.444Z,100231
2018-04-28T06:31:12.862Z,100236
2018-04-28T06:33:41.277Z,100227
2018-04-28T06:36:10.531Z,100231
2018-04-28T06:38:38.906Z,100235
2018-04-28T06:41:07.717Z,100230
2018-04-28T06:43:36.324Z,100241
2018-04-28T06:46:05.031Z,100235
2018-04-28T06:48:33.848Z,100241
2018-04-28T06:51:02.186Z,100244
2018-04-28T06:53:30.752Z,100245
2018-04-28T06:55:59.344Z,100230
2018-04-28T06:58:28.267Z,100236
2018-04-28T07:00:56.981Z,100232
2018-04-28T07:03:25.810Z,100231
2018-04-28T07:05:54.633Z,100236
2018-04-28T07:08:23.164Z,100238
2018-04-28T07:10:51.549Z,100243
2018-04-28T07:13:20.170Z,100238
2018-04-28T07:15:48.593Z,100241
2018-04-28T07:18:17.160Z,100244
2018-04-28T07:20:47.238Z,100257
2018-04-28T07:23:15.997Z,100249
2018-04-28T07:25:44.452Z,100250
2018-04-28T07:28:13.317Z,100248
2018-04-28T07:30:42.054Z,100255
2018-04-28T07:33:10.929Z,100261
2018-04-28T07:35:39.891Z,100249
2018-04-28T07:38:08.695Z,100257
2018-04-28T07:40:37.695Z,100254
2018-04-28T07:43:06.295Z,100250
2018-04-28T07:45:35.229Z,100248
2018-04-28T07:48:04.055Z,100254
2018-04-28T07:50:33.267Z,100260
2018-04-28T07:53:02.133Z,100259
2018-04-28T07:55:31.246Z,100260
2018-04-28T07:58:00.158Z,100261
2018-04-28T08:00:29.004Z,100258
2018-04-28T08:02:59.419Z,100264
2018-04-28T08:05:28.210Z,100271
2018-04-28T08:07:56.843Z,100278
2018-04-28T08:10:25.400Z,100271
2018-04-28T08:12:54.062Z,100270
2018-04-28T08:15:22.846Z,100272
2018-04-28T08:17:51.637Z,100278
2018-04-28T08:20:20.442Z,100281
2018-04-28T08:22:48.886Z,100288
2018-04-28T08:25:17.398Z,100291
2018-04-28T08:27:46.055Z,100295
2018-04-28T08:30:14.633Z,100288
2018-04-28T08:32:43.741Z,100284
2018-04-28T08:35:12.883Z,100296
2018-04-28T08:37:41.752Z,100295
2018-04-28T08:40:10.839Z,100295
2018-04-28T08:42:39.890Z,100298
2018-04-28T08:45:08.822Z,100291
2018-04-28T08:47:37.808Z,100295
2018-04-28T08:50:06.507Z,100291
2018-04-28T08:52:35.428Z,100296
2018-04-28T08:55:03.873Z,100295
2018-04-28T08:57:32.968Z,100297
2018-04-28T09:00:13.040Z,100287
2018-04-28T09:02:41.620Z,100295
2018-04-28T09:05:10.292Z,100292
2018-04-28T09:07:39.117Z,100299
2018-04-28T09:10:07.388Z,100304
2018-04-28T09:12:36.036Z,100305
2018-04-28T09:15:04.476Z,100317
2018-04-28T09:17:33.407Z,100311
2018-04-28T09:20:01.833Z,100318
2018-04-28T09:22:31.423Z,100313
2018-04-28T09:25:00.168Z,100318
2018-04-28T09:27:29.074Z,100322
2018-04-28T09:29:57.295Z,100331
2018-04-28T09:32:25.591Z,100310
2018-04-28T09:34:53.980Z,100313
2018-04-28T09:37:22.206Z,100318
2018-04-28T09:39:50.708Z,100313
2018-04-28T09:42:18.911Z,100312
2018-04-28T09:44:47.819Z,100304
2018-04-28T09:47:16.441Z,100317
2018-04-28T09:49:45.326Z,100307
2018-04-28T09:52:13.852Z,100306
2018-04-28T09:54:58.916Z,100323
2018-04-28T09:57:31.133Z,100307
2018-04-28T10:00:11.613Z,100323
2018-04-28T10:02:41.099Z,100306
2018-04-28T10:05:09.231Z,100313
2018-04-28T10:07:37.547Z,100312
2018-04-28T10:10:05.989Z,100315
2018-04-28T10:12:34.274Z,100311
2018-04-28T10:15:02.745Z,100302
2018-04-28T10:17:31.504Z,100307
2018-04-28T10:20:00.421Z,100316
2018-04-28T10:22:29.028Z,100323
2018-04-28T10:24:57.545Z,100334
2018-04-28T10:27:25.895Z,100326
2018-04-28T10:29:54.274Z,100326
2018-04-28T10:32:22.607Z,100310
2018-04-28T10:34:51.767Z,100313
2018-04-28T10:37:20.257Z,100313
2018-04-28T10:39:48.632Z,100298
2018-04-28T10:42:16.961Z,100306
2018-04-28T10:44:45.286Z,100305
2018-04-28T10:47:13.570Z,100300
2018-04-28T10:49:41.734Z,100293
2018-04-28T10:52:09.997Z,100304
2018-04-28T10:54:38.331Z,100307
2018-04-28T10:57:06.593Z,100307
2018-04-28T10:59:35.092Z,100310
2018-04-28T11:02:03.609Z,100301
2018-04-28T11:04:32.787Z,100297
2018-04-28T11:07:01.232Z,100313
2018-04-28T11:09:29.583Z,100300
2018-04-28T11:11:57.737Z,100317
2018-04-28T11:14:26.200Z,100309
2018-04-28T11:16:54.474Z,100318
2018-04-28T11:19:22.982Z,100323
2018-04-28T11:21:51.369Z,100318
2018-04-28T11:24:20.227Z,100324
2018-04-28T11:26:48.802Z,100324
2018-04-28T11:29:17.873Z,100335
2018-04-28T11:31:46.357Z,100331
2018-04-28T11:34:15.004Z,100326
2018-04-28T11:36:43.498Z,100321
2018-04-28T11:39:11.953Z,100330
2018-04-28T11:41:40.302Z,100330
2018-04-28T11:44:08.590Z,100324
2018-04-28T11:46:36.815Z,100326
2018-04-28T11:49:05.361Z,100333
2018-04-28T11:51:33.743Z,100333
2018-04-28T11:54:01.905Z,100323
2018-04-28T11:56:30.342Z,100313
2018-04-28T11:58:58.775Z,100311
2018-04-28T12:01:27.123Z,100320
2018-04-28T12:03:55.400Z,100326
2018-04-28T12:06:24.009Z,100326
2018-04-28T12:08:52.217Z,100316
2018-04-28T12:11:20.696Z,100323
2018-04-28T12:13:48.852Z,100324
2018-04-28T12:16:17.055Z,100321
2018-04-28T12:18:45.543Z,100320
2018-04-28T12:21:13.707Z,100316
2018-04-28T12:23:41.916Z,100320
2018-04-28T12:26:10.211Z,100322
2018-04-28T12:28:38.488Z,100325
2018-04-28T12:31:07.141Z,100334
2018-04-28T12:33:35.363Z,100339
2018-04-28T12:36:03.760Z,100337
2018-04-28T12:38:31.935Z,100337
2018-04-28T12:41:00.183Z,100334
2018-04-28T12:43:28.478Z,100337
2018-04-28T12:45:57.130Z,100335
2018-04-28T12:48:25.249Z,100331
2018-04-28T12:50:55.937Z,100335
2018-04-28T12:53:24.327Z,100321
2018-04-28T12:55:52.832Z,100338
2018-04-28T12:58:21.243Z,100320
2018-04-28T13:00:49.501Z,100330
2018-04-28T13:03:17.808Z,100345
2018-04-28T13:05:46.176Z,100326
2018-04-28T13:08:16.335Z,100333
2018-04-28T13:10:45.263Z,100326
2018-04-28T13:13:14.395Z,100337
2018-04-28T13:15:42.745Z,100333
2018-04-28T13:18:11.200Z,100336
2018-04-28T13:20:39.563Z,100340
2018-04-28T13:23:07.764Z,100335
2018-04-28T13:25:36.095Z,100346
2018-04-28T13:28:04.471Z,100325
2018-04-28T13:30:32.780Z,100323
2018-04-28T13:33:01.190Z,100331
2018-04-28T13:35:29.939Z,100308
2018-04-28T13:37:58.236Z,100323
2018-04-28T13:40:26.491Z,100321
2018-04-28T13:42:54.630Z,100334
2018-04-28T13:45:22.920Z,100326
2018-04-28T13:47:51.337Z,100319
2018-04-28T13:50:19.962Z,100330
2018-04-28T13:52:48.472Z,100335
2018-04-28T13:55:17.094Z,100324
2018-04-28T13:57:45.430Z,100320
2018-04-28T14:00:14.259Z,100323
2018-04-28T14:02:42.759Z,100316
2018-04-28T14:05:11.423Z,100312
2018-04-28T14:07:39.710Z,100309
2018-04-28T14:10:07.958Z,100318
2018-04-28T14:12:36.424Z,100314
2018-04-28T14:15:04.755Z,100310
2018-04-28T14:17:33.476Z,100296
2018-04-28T14:20:01.934Z,100302
2018-04-28T14:22:30.415Z,100300
2018-04-28T14:24:59.044Z,100304
2018-04-28T14:27:27.310Z,100296
2018-04-28T14:29:55.816Z,100300
2018-04-28T14:32:24.079Z,100303
2018-04-28T14:34:52.636Z,100299
2018-04-28T14:37:21.215Z,100310
2018-04-28T14:39:49.563Z,100298
2018-04-28T14:42:17.968Z,100309
2018-04-28T14:44:46.378Z,100310
2018-04-28T14:47:14.626Z,100310
2018-04-28T14:49:42.926Z,100298
2018-04-28T14:52:11.437Z,100299
2018-04-28T14:54:39.715Z,100300
2018-04-28T14:57:08.055Z,100298
2018-04-28T14:59:36.420Z,100303
2018-04-28T15:02:04.732Z,100305
2018-04-28T15:04:33.078Z,100300
2018-04-28T15:07:01.373Z,100301
2018-04-28T15:09:29.770Z,100300
2018-04-28T15:11:58.251Z,100302
2018-04-28T15:14:26.458Z,100303
2018-04-28T15:16:54.770Z,100298
2018-04-28T15:19:23.036Z,100299
2018-04-28T15:21:51.356Z,100304
2018-04-28T15:24:19.712Z,100307
2018-04-28T15:26:47.954Z,100310
2018-04-28T15:29:16.210Z,100320
2018-04-28T15:31:44.511Z,100316
2018-04-28T15:34:13.103Z,100326
2018-04-28T15:36:41.326Z,100330
2018-04-28T15:39:09.568Z,100332
2018-04-28T15:41:37.885Z,100332
2018-04-28T15:44:06.264Z,100324
2018-04-28T15:46:34.543Z,100332
2018-04-28T15:49:02.976Z,100313
2018-04-28T15:51:31.257Z,100318
2018-04-28T15:53:59.696Z,100317
2018-04-28T15:56:27.909Z,100315
2018-04-28T15:58:56.438Z,100311
2018-04-28T16:01:24.747Z,100313
2018-04-28T16:03:53.234Z,100312
2018-04-28T16:06:21.405Z,100303
2018-04-28T16:08:49.788Z,100314
2018-04-28T16:11:18.029Z,100323
2018-04-28T16:13:47.540Z,100320
2018-04-28T16:16:16.240Z,100314
2018-04-28T16:18:44.615Z,100319
2018-04-28T16:21:12.947Z,100320
2018-04-28T16:23:41.436Z,100315
2018-04-28T16:26:10.065Z,100320
2018-04-28T16:28:38.291Z,100311
2018-04-28T16:31:06.479Z,100312
2018-04-28T16:33:34.798Z,100315
2018-04-28T16:36:03.101Z,100307
2018-04-28T16:38:31.434Z,100308
2018-04-28T16:40:59.590Z,100312
2018-04-28T16:43:27.794Z,100310
2018-04-28T16:45:56.229Z,100310
2018-04-28T16:48:24.558Z,100312
2018-04-28T16:50:53.028Z,100312
2018-04-28T16:53:21.420Z,100314
2018-04-28T16:55:49.690Z,100317
2018-04-28T16:58:18.119Z,100307
2018-04-28T17:00:46.896Z,100321
2018-04-28T17:03:15.207Z,100323
2018-04-28T17:05:43.552Z,100316
2018-04-28T17:08:12.004Z,100323
2018-04-28T17:10:40.368Z,100324
2018-04-28T17:13:08.805Z,100319
2018-04-28T17:15:37.147Z,100322
2018-04-28T17:18:05.563Z,100314
2018-04-28T17:20:33.808Z,100333
2018-04-28T17:23:02.173Z,100326
2018-04-28T17:25:30.503Z,100336
2018-04-28T17:27:58.938Z,100333
2018-04-28T17:30:27.235Z,100330
2018-04-28T17:32:55.587Z,100333
2018-04-28T17:35:23.944Z,100344
2018-04-28T17:37:52.179Z,100343
2018-04-28T17:40:20.500Z,100344
2018-04-28T17:42:49.014Z,100348
2018-04-28T17:45:17.329Z,100347
2018-04-28T17:47:45.598Z,100359
2018-04-28T17:50:13.881Z,100356
2018-04-28T17:52:42.159Z,100366
2018-04-28T17:55:10.733Z,100361
2018-04-28T17:57:38.967Z,100358
2018-04-28T18:00:07.278Z,100362
2018-04-28T18:02:35.558Z,100364
2018-04-28T18:05:03.867Z,100361
2018-04-28T18:07:32.269Z,100365
2018-04-28T18:10:00.611Z,100368
2018-04-28T18:12:28.845Z,100366
2018-04-28T18:14:56.999Z,100373
2018-04-28T18:17:25.305Z,100379
2018-04-28T18:19:53.659Z,100377
2018-04-28T18:22:21.871Z,100386
2018-04-28T18:24:50.151Z,100378
2018-04-28T18:27:18.423Z,100376
2018-04-28T18:29:46.747Z,100373
2018-04-28T18:32:14.894Z,100377
2018-04-28T18:34:43.077Z,100376
2018-04-28T18:37:11.152Z,100389
2018-04-28T18:39:39.241Z,100378
2018-04-28T18:42:07.452Z,100394
2018-04-28T18:44:35.629Z,100387
2018-04-28T18:47:03.682Z,100392
2018-04-28T18:49:31.763Z,100395
2018-04-28T18:51:59.842Z,100398
2018-04-28T18:54:27.926Z,100407
2018-04-28T18:56:56.007Z,100400
2018-04-28T18:59:24.099Z,100398
2018-04-28T19:01:52.202Z,100403
2018-04-28T19:04:20.288Z,100404
2018-04-28T19:06:49.793Z,100401
2018-04-28T19:09:17.876Z,100410
2018-04-28T19:11:45.960Z,100411
2018-04-28T19:14:14.096Z,100415
2018-04-28T19:16:42.175Z,100418
2018-04-28T19:19:10.283Z,100415
2018-04-28T19:21:38.454Z,100419
2018-04-28T19:24:06.600Z,100416
2018-04-28T19:26:34.726Z,100410
2018-04-28T19:29:02.951Z,100407
2018-04-28T19:31:31.113Z,100412
2018-04-28T19:34:00.693Z,100402
2018-04-28T19:36:29.073Z,100403
2018-04-28T19:38:57.203Z,100407
2018-04-28T19:41:25.344Z,100399
2018-04-28T19:43:53.538Z,100404
2018-04-28T19:46:21.712Z,100403
2018-04-28T19:48:49.863Z,100396
2018-04-28T19:51:18.036Z,100395
2018-04-28T19:53:46.223Z,100395
2018-04-28T19:56:14.365Z,100401
2018-04-28T19:58:42.489Z,100397
2018-04-28T20:01:10.721Z,100398
2018-04-28T20:03:38.809Z,100403
2018-04-28T20:06:06.933Z,100396
2018-04-28T20:08:35.061Z,100396
2018-04-28T20:11:03.203Z,100389
2018-04-28T20:13:31.418Z,100401
2018-04-28T20:15:59.596Z,100405
2018-04-28T20:18:27.807Z,100393
2018-04-28T20:20:56.044Z,100388
2018-04-28T20:23:35.910Z,100403
2018-04-28T20:26:04.075Z,100406
2018-04-28T20:28:32.239Z,100410
2018-04-28T20:31:00.374Z,100407
2018-04-28T20:33:28.621Z,100396
2018-04-28T20:35:56.967Z,100407
2018-04-28T20:38:25.130Z,100411
2018-04-28T20:40:53.288Z,100408
2018-04-28T20:43:21.420Z,100409
2018-04-28T20:45:49.580Z,100407
2018-04-28T20:48:17.737Z,100405
2018-04-28T20:50:45.880Z,100403
2018-04-28T20:53:14.017Z,100400
2018-04-28T20:55:42.197Z,100404
2018-04-28T20:58:10.329Z,100402
2018-04-28T21:00:38.505Z,100402
2018-04-28T21:03:06.695Z,100402
2018-04-28T21:05:34.842Z,100404
2018-04-28T21:08:02.997Z,100407
2018-04-28T21:10:31.153Z,100417
2018-04-28T21:12:59.252Z,100411
2018-04-28T21:15:27.366Z,100410
2018-04-28T21:17:55.486Z,100414
2018-04-28T21:20:23.645Z,100406
2018-04-28T21:22:51.844Z,100419
2018-04-28T21:25:19.958Z,100406
2018-04-28T21:27:48.144Z,100402
2018-04-28T21:30:16.237Z,100401
2018-04-28T21:32:44.330Z,100402
2018-04-28T21:35:12.447Z,100405
2018-04-28T21:37:40.650Z,100397
2018-04-28T21:40:08.800Z,100395
2018-04-28T21:42:36.935Z,100392
2018-04-28T21:45:05.091Z,100390
2018-04-28T21:47:33.222Z,100384
2018-04-28T21:50:01.381Z,100386
2018-04-28T21:52:29.533Z,100377
2018-04-28T21:54:57.719Z,100383
2018-04-28T21:57:25.827Z,100382
2018-04-28T21:59:53.976Z,100377
2018-04-28T22:02:22.103Z,100386
2018-04-28T22:04:50.260Z,100386
2018-04-28T22:07:18.355Z,100390
2018-04-28T22:09:46.450Z,100403
2018-04-28T22:12:14.612Z,100394
2018-04-28T22:14:42.738Z,100402
2018-04-28T22:17:10.863Z,100407
2018-04-28T22:19:39.016Z,100410
2018-04-28T22:22:07.138Z,100415
2018-04-28T22:24:35.295Z,100421
2018-04-28T22:27:03.680Z,100419
2018-04-28T22:29:31.762Z,100425
2018-04-28T22:32:00.011Z,100420
2018-04-28T22:34:28.153Z,100425
2018-04-28T22:36:56.275Z,100425
2018-04-28T22:39:24.403Z,100421
2018-04-28T22:41:52.550Z,100429
2018-04-28T22:44:20.702Z,100432
2018-04-28T22:46:48.847Z,100432
2018-04-28T22:49:16.954Z,100434
2018-04-28T22:51:45.106Z,100424
2018-04-28T22:54:13.473Z,100434
2018-04-28T22:56:41.609Z,100422
2018-04-28T22:59:09.727Z,100424
2018-04-28T23:01:37.842Z,100423
2018-04-28T23:04:06.038Z,100430
2018-04-28T23:06:34.577Z,100430
2018-04-28T23:09:02.706Z,100416
2018-04-28T23:11:30.831Z,100423
2018-04-28T23:13:58.939Z,100426
2018-04-28T23:16:27.310Z,100424
2018-04-28T23:18:55.420Z,100414
2018-04-28T23:21:23.557Z,100421
2018-04-28T23:23:51.667Z,100419
2018-04-28T23:26:19.803Z,100422
2018-04-28T23:28:47.946Z,100418
2018-04-28T23:31:16.096Z,100412
2018-04-28T23:33:44.192Z,100421
2018-04-28T23:36:12.348Z,100414
2018-04-28T23:38:40.494Z,100409
2018-04-28T23:41:08.653Z,100421
2018-04-28T23:43:36.755Z,100417
2018-04-28T23:46:04.905Z,100418
2018-04-28T23:48:33.022Z,100422
2018-04-28T23:51:01.152Z,100407
2018-04-28T23:53:29.232Z,100423
2018-04-28T23:55:57.352Z,100418
2018-04-28T23:58:25.451Z,100407
